Time;durP1;ratioP1;P1;durP2;ratioP2;P2;SDS_P1;SDS_P2;PMS_P1;PMS_P2;Temp;Humidity;BMP_temperature;BMP_pressure;BME280_temperature;BME280_humidity;BME280_pressure;Samples;Min_cycle;Max_cycle;Signal;HPM_P1;HPM_P2
2022/11/26 00:01:44;;;;;;;26.33;18.63;;;6.50;99.90;;;6.57;91.24;98786.19;5030810;28;20462;-74
2022/11/26 00:04:13;;;;;;;29.20;20.63;;;6.50;99.90;;;6.65;91.13;98784.34;5029993;28;20989;-74
2022/11/26 00:06:43;;;;;;;31.80;21.17;;;6.50;99.90;;;6.73;90.94;98796.09;5045740;28;20482;-74
2022/11/26 00:09:25;;;;;;;29.50;18.80;;;6.50;99.90;;;6.65;90.53;98797.75;5010861;28;20479;-74
2022/11/26 00:11:52;;;;;;;26.03;19.07;;;6.60;99.90;;;6.56;91.07;98765.72;5025173;28;20543;-73
2022/11/26 00:14:19;;;;;;;25.30;19.67;;;6.60;99.90;;;6.84;90.30;98801.09;5022522;28;20458;-73
2022/11/26 00:16:46;;;;;;;27.40;18.37;;;6.60;99.90;;;6.83;89.63;98780.63;5019269;28;20459;-73
2022/11/26 00:19:16;;;;;;;28.63;19.27;;;6.70;99.90;;;6.80;89.99;98783.63;5024467;28;20471;-74
2022/11/26 00:21:43;;;;;;;27.73;19.43;;;6.70;99.90;;;6.83;89.80;98801.25;5043729;28;20515;-74
2022/11/26 00:24:26;;;;;;;26.83;19.37;;;6.80;99.90;;;6.56;90.53;98788.06;5045120;28;20477;-73
2022/11/26 00:26:56;;;;;;;25.80;19.03;;;6.70;99.90;;;6.72;91.05;98808.66;5041835;28;20446;-71
2022/11/26 00:29:23;;;;;;;30.13;19.70;;;6.70;99.90;;;6.76;90.80;98804.66;5028123;28;20489;-73
2022/11/26 00:31:51;;;;;;;24.40;19.63;;;6.70;99.90;;;6.91;90.41;98804.75;5026346;28;20472;-73
2022/11/26 00:34:19;;;;;;;26.77;20.10;;;6.80;99.90;;;6.77;89.67;98776.78;5028460;28;20469;-71
2022/11/26 00:36:47;;;;;;;27.53;19.60;;;6.70;99.90;;;6.97;89.37;98811.28;5045436;28;21171;-72
2022/11/26 00:39:19;;;;;;;23.67;17.67;;;6.70;99.90;;;6.97;89.20;98816.66;5043901;28;20451;-72
2022/11/26 00:41:50;;;;;;;24.07;17.30;;;6.70;99.90;;;6.92;89.50;98816.34;5031322;28;20451;-73
2022/11/26 00:44:19;;;;;;;23.50;17.97;;;6.70;99.90;;;6.91;89.45;98817.38;5022868;28;20496;-72
2022/11/26 00:46:48;;;;;;;29.00;17.67;;;6.70;99.90;;;6.92;89.23;98819.88;5028401;28;21293;-72
2022/11/26 00:49:16;;;;;;;22.37;17.20;;;6.70;99.90;;;6.97;89.56;98824.72;5029729;28;20503;-72
2022/11/26 00:51:46;;;;;;;24.03;16.73;;;6.70;99.90;;;6.99;89.09;98820.03;5024266;28;20455;-73
2022/11/26 00:54:17;;;;;;;25.13;17.77;;;6.80;99.90;;;6.95;89.45;98821.38;5027761;28;20472;-72
2022/11/26 00:56:46;;;;;;;26.23;17.53;;;6.70;99.90;;;7.07;89.36;98825.38;5024416;28;20936;-73
2022/11/26 00:59:14;;;;;;;20.80;16.40;;;6.80;99.90;;;6.90;89.03;98800.41;5027875;28;20454;-72
2022/11/26 01:01:42;;;;;;;22.73;15.53;;;6.80;99.90;;;7.01;89.33;98833.28;5023628;28;20461;-73
2022/11/26 01:04:09;;;;;;;20.87;15.30;;;6.70;99.90;;;7.00;89.41;98835.13;5027587;28;20485;-73
2022/11/26 01:06:40;;;;;;;22.10;15.50;;;6.80;99.90;;;6.95;89.47;98827.56;5027950;28;20488;-73
2022/11/26 01:09:17;;;;;;;23.30;16.33;;;6.80;99.90;;;7.11;89.18;98844.66;5030059;28;20461;-73
2022/11/26 01:11:45;;;;;;;25.27;16.60;;;6.90;99.90;;;7.14;89.21;98852.41;5027965;28;20513;-74
2022/11/26 01:14:17;;;;;;;19.33;15.83;;;6.90;99.90;;;7.05;88.96;98846.22;5022993;28;20535;-72
2022/11/26 01:16:47;;;;;;;26.97;17.43;;;6.80;99.90;;;7.15;89.36;98847.84;5017319;28;20460;-73
2022/11/26 01:19:17;;;;;;;18.07;15.00;;;6.80;99.90;;;6.94;89.16;98833.13;5039498;28;21133;-73
2022/11/26 01:21:44;;;;;;;24.50;15.77;;;6.80;99.90;;;7.08;89.67;98853.06;5027626;28;20542;-73
2022/11/26 01:24:13;;;;;;;22.30;15.33;;;6.90;99.90;;;6.68;89.26;98801.97;5033667;28;20481;-74
2022/11/26 01:26:43;;;;;;;24.57;16.37;;;6.80;99.90;;;6.97;89.44;98874.94;5023972;28;20494;-73
2022/11/26 01:29:16;;;;;;;18.83;14.40;;;6.80;99.90;;;6.97;89.49;98856.13;5029598;28;20506;-75
2022/11/26 01:31:43;;;;;;;21.20;16.77;;;6.80;99.90;;;7.02;89.31;98875.28;5024727;28;20939;-74
2022/11/26 01:34:11;;;;;;;24.30;15.67;;;6.80;99.90;;;6.99;89.24;98876.44;5028089;28;20454;-74
2022/11/26 01:36:40;;;;;;;22.37;15.43;;;6.80;99.90;;;6.80;90.38;98862.38;5029522;28;20576;-74
2022/11/26 01:39:18;;;;;;;22.57;15.60;;;6.70;99.90;;;6.98;90.43;98873.94;5029133;28;21025;-74
2022/11/26 01:41:53;;;;;;;25.27;15.63;;;6.70;99.90;;;7.04;89.79;98866.00;5025978;28;20810;-74
2022/11/26 01:44:23;;;;;;;19.33;15.30;;;6.80;99.90;;;7.04;90.05;98884.00;5019939;28;20459;-74
2022/11/26 01:46:51;;;;;;;26.80;16.07;;;6.80;99.90;;;7.03;90.13;98876.94;5012909;28;20452;-75
2022/11/26 01:49:23;;;;;;;19.60;15.70;;;6.70;99.90;;;6.99;90.06;98891.75;5027040;28;20458;-71
2022/11/26 01:52:01;;;;;;;21.50;15.60;;;6.70;99.90;;;6.98;90.17;98890.88;5038538;28;20486;-74
2022/11/26 01:54:33;;;;;;;24.57;15.57;;;6.70;99.90;;;6.99;90.08;98897.94;5049081;28;20469;-72
2022/11/26 01:57:07;;;;;;;20.00;14.97;;;6.70;99.90;;;6.97;90.05;98899.97;5046133;28;20459;-73
2022/11/26 01:59:42;;;;;;;23.97;15.87;;;6.70;99.90;;;7.02;89.92;98902.97;5032885;28;20524;-74
2022/11/26 02:02:10;;;;;;;24.77;14.33;;;6.70;99.90;;;7.01;90.02;98906.66;5030422;28;20458;-73
2022/11/26 02:04:42;;;;;;;22.13;14.30;;;6.70;99.90;;;6.89;90.42;98886.53;5031278;28;20564;-74
2022/11/26 02:07:10;;;;;;;22.80;15.30;;;6.70;99.90;;;7.00;90.19;98915.75;5028848;28;20477;-74
2022/11/26 02:09:40;;;;;;;23.27;13.40;;;6.70;99.90;;;6.99;90.08;98907.88;5042724;28;20875;-74
2022/11/26 02:12:07;;;;;;;21.70;15.07;;;6.70;99.90;;;7.02;89.68;98902.97;5038666;28;20448;-72
2022/11/26 02:14:39;;;;;;;21.00;14.07;;;6.80;99.90;;;7.11;89.61;98916.41;5030235;28;20473;-72
2022/11/26 02:17:17;;;;;;;19.23;14.30;;;6.80;99.90;;;7.19;89.14;98919.06;5030571;28;20486;-74
2022/11/26 02:20:24;;;;;;;24.07;14.97;;;6.90;99.90;;;7.19;89.57;98917.22;5025607;28;21244;-73
2022/11/26 02:23:47;;;;;;;14.53;12.83;;;6.90;99.90;;;7.17;89.78;98921.94;5033726;28;20938;-75
2022/11/26 02:26:52;;;;;;;18.87;13.70;;;6.90;99.90;;;7.22;90.16;98926.81;5029275;28;20455;-74
2022/11/26 02:29:41;;;;;;;20.23;13.43;;;6.90;99.90;;;7.26;89.98;98925.44;5036673;28;20465;-73
2022/11/26 02:32:13;;;;;;;19.20;11.57;;;6.90;99.90;;;7.01;90.16;98920.09;5030178;28;20481;-73
2022/11/26 02:34:46;;;;;;;19.50;12.70;;;6.90;99.90;;;7.16;90.13;98938.22;5029626;28;20942;-74
2022/11/26 02:37:20;;;;;;;15.40;11.47;;;6.90;99.90;;;7.23;89.35;98936.53;5027703;28;20455;-73
2022/11/26 02:39:47;;;;;;;17.87;12.50;;;6.90;99.90;;;7.05;89.47;98902.66;5030141;28;20473;-75
2022/11/26 02:42:26;;;;;;;16.33;11.83;;;7.00;99.90;;;7.28;89.05;98934.16;5024022;28;20463;-74
2022/11/26 02:44:59;;;;;;;21.43;11.87;;;7.10;99.90;;;7.34;89.01;98938.84;5025589;28;20478;-75
2022/11/26 02:47:28;;;;;;;14.13;11.57;;;7.20;99.90;;;7.37;88.42;98932.28;5020665;28;20463;-72
2022/11/26 02:50:00;;;;;;;16.77;11.27;;;7.20;99.90;;;7.29;88.01;98940.41;5026006;28;20465;-73
2022/11/26 02:52:30;;;;;;;11.83;10.13;;;7.20;99.90;;;7.37;88.78;98943.91;5022567;28;20439;-74
2022/11/26 02:54:58;;;;;;;17.63;10.07;;;7.20;99.90;;;7.45;87.53;98934.97;5028562;28;20453;-73
2022/11/26 02:57:30;;;;;;;14.20;9.80;;;7.30;99.90;;;7.39;87.79;98941.03;5028081;28;21007;-73
2022/11/26 02:59:59;;;;;;;13.60;9.40;;;7.20;99.90;;;7.30;88.13;98944.75;5035451;28;20474;-73
2022/11/26 03:02:32;;;;;;;16.57;10.40;;;7.20;99.90;;;7.34;87.67;98944.22;5028735;28;20516;-72
2022/11/26 03:05:03;;;;;;;18.67;10.27;;;7.20;99.90;;;7.29;88.07;98943.91;5029728;28;20541;-73
2022/11/26 03:07:32;;;;;;;18.00;10.97;;;7.20;99.90;;;7.11;88.30;98932.53;5037705;28;20460;-72
2022/11/26 03:10:02;;;;;;;18.73;10.30;;;7.10;99.90;;;7.16;87.73;98938.22;5029119;28;20459;-74
2022/11/26 03:12:30;;;;;;;13.63;10.37;;;7.20;99.90;;;7.10;88.19;98942.41;5018031;28;20804;-74
2022/11/26 03:14:59;;;;;;;14.47;10.73;;;7.10;99.90;;;7.12;88.85;98955.69;5029199;28;20469;-73
2022/11/26 03:17:26;;;;;;;19.13;10.47;;;7.00;99.90;;;7.12;88.46;98955.69;5044459;28;20942;-72
2022/11/26 03:19:53;;;;;;;20.90;11.63;;;7.00;99.90;;;7.06;88.31;98950.00;5028763;28;21194;-71
2022/11/26 03:22:21;;;;;;;22.83;11.57;;;7.00;99.90;;;6.52;87.95;98860.06;5029971;28;20516;-72
2022/11/26 03:24:48;;;;;;;16.33;10.17;;;7.00;99.90;;;7.02;88.16;98950.50;5026378;28;20478;-72
2022/11/26 03:27:15;;;;;;;13.07;10.50;;;6.90;99.90;;;6.95;88.59;98955.72;5037370;28;21081;-71
2022/11/26 03:29:42;;;;;;;15.67;11.00;;;6.90;99.90;;;6.97;88.41;98956.38;5042830;28;20931;-72
2022/11/26 03:32:11;;;;;;;18.40;10.33;;;6.90;99.90;;;6.95;88.63;98966.47;5046363;28;20499;-72
2022/11/26 03:34:38;;;;;;;19.93;11.50;;;6.80;99.90;;;6.82;88.41;98950.00;5030519;28;20463;-72
2022/11/26 03:37:06;;;;;;;14.97;9.47;;;6.80;99.90;;;6.59;88.44;98913.91;5031017;28;20449;-73
2022/11/26 03:39:33;;;;;;;16.67;10.30;;;6.80;99.90;;;6.85;88.95;98972.00;5025108;28;20814;-73
2022/11/26 03:42:01;;;;;;;17.37;10.17;;;6.80;99.90;;;6.80;89.10;98980.56;5018090;28;20455;-73
2022/11/26 03:44:29;;;;;;;17.53;10.90;;;6.80;99.90;;;6.84;89.01;98985.59;5024855;28;20565;-73
2022/11/26 03:46:57;;;;;;;14.90;9.43;;;6.70;99.90;;;6.88;88.90;98978.88;5037572;28;20451;-73
2022/11/26 03:49:25;;;;;;;14.57;10.10;;;6.70;99.90;;;6.57;88.96;98971.47;5045743;28;20442;-72
2022/11/26 03:51:54;;;;;;;16.00;10.77;;;6.70;99.90;;;6.72;89.99;98996.66;5028233;28;20817;-74
2022/11/26 03:54:21;;;;;;;18.10;10.80;;;6.60;99.90;;;6.73;89.50;98995.66;5023056;28;20473;-72
2022/11/26 03:56:49;;;;;;;14.07;10.47;;;6.60;99.90;;;6.66;89.67;98994.66;5021741;28;20473;-72
2022/11/26 03:59:17;;;;;;;16.50;9.87;;;6.60;99.90;;;6.62;90.10;98993.31;5026321;28;20465;-72
2022/11/26 04:01:44;;;;;;;22.40;10.60;;;6.60;99.90;;;6.73;89.57;99008.25;5041978;28;20501;-72
2022/11/26 04:04:11;;;;;;;15.63;9.93;;;6.60;99.90;;;6.93;88.85;98998.03;5031240;28;20464;-72
2022/11/26 04:06:40;;;;;;;18.03;11.10;;;6.70;99.90;;;6.83;89.36;99005.41;5025557;28;20467;-71
2022/11/26 04:09:07;;;;;;;18.20;10.50;;;6.70;99.90;;;6.79;88.63;99005.75;5023526;28;20518;-72
2022/11/26 04:11:35;;;;;;;19.10;10.27;;;6.80;99.90;;;6.86;89.37;99018.50;5026001;28;20454;-71
2022/11/26 04:14:02;;;;;;;14.13;9.80;;;6.70;99.90;;;6.60;89.22;98998.03;5025693;28;20452;-73
2022/11/26 04:16:30;;;;;;;15.23;10.67;;;6.70;99.90;;;6.84;89.36;99016.00;5025888;28;20469;-72
2022/11/26 04:18:57;;;;;;;15.40;10.97;;;6.70;99.90;;;6.88;88.91;99013.81;5034417;28;20481;-72
2022/11/26 04:21:24;;;;;;;22.43;11.43;;;6.80;99.90;;;6.86;89.06;99013.13;5022433;28;20474;-72
2022/11/26 04:23:53;;;;;;;21.53;10.93;;;6.70;99.90;;;6.79;89.30;99021.88;5027353;28;20459;-73
2022/11/26 04:26:20;;;;;;;20.13;11.33;;;6.70;99.90;;;6.90;88.94;99027.91;5033223;28;20459;-75
2022/11/26 04:28:49;;;;;;;15.97;9.80;;;6.80;99.90;;;6.75;89.07;99028.59;5032671;28;20434;-73
2022/11/26 04:31:16;;;;;;;16.37;10.43;;;6.70;99.90;;;6.78;89.35;99032.78;5049379;28;20466;-72
2022/11/26 04:33:44;;;;;;;19.73;11.07;;;6.70;99.90;;;6.72;89.91;99031.59;5041224;28;20462;-73
2022/11/26 04:36:11;;;;;;;20.17;11.20;;;6.70;99.90;;;6.87;89.46;99037.16;5031685;28;20446;-72
2022/11/26 04:38:39;;;;;;;17.73;10.40;;;6.70;99.90;;;6.98;88.95;99035.97;5045052;28;20454;-72
2022/11/26 04:41:07;;;;;;;17.50;9.90;;;6.80;99.90;;;6.96;88.67;99038.00;5027761;28;20454;-72
2022/11/26 04:43:35;;;;;;;13.50;9.60;;;6.80;99.90;;;6.91;88.46;99049.25;5029166;28;20516;-73
2022/11/26 04:46:02;;;;;;;19.27;11.33;;;6.80;99.90;;;6.64;88.74;99015.47;5042225;28;20561;-72
2022/11/26 04:48:29;;;;;;;18.60;11.13;;;6.80;99.90;;;6.79;89.25;99045.19;5023212;28;20481;-71
2022/11/26 04:50:57;;;;;;;16.33;10.10;;;6.70;99.90;;;6.77;89.38;99034.63;5028821;28;20443;-71
2022/11/26 04:53:25;;;;;;;17.27;9.83;;;6.70;99.90;;;6.69;89.28;99037.28;5028802;28;20532;-72
2022/11/26 04:55:52;;;;;;;20.87;11.40;;;6.70;99.90;;;6.82;88.52;99052.09;5029370;28;20506;-71
2022/11/26 04:58:22;;;;;;;16.23;10.93;;;6.70;99.90;;;6.69;89.60;99042.66;5019512;28;20467;-73
2022/11/26 05:00:49;;;;;;;20.03;10.90;;;6.70;99.90;;;6.80;89.42;99054.94;5024922;28;20465;-74
2022/11/26 05:03:17;;;;;;;21.40;10.57;;;6.70;99.90;;;6.66;89.92;99051.88;5042902;28;20514;-72
2022/11/26 05:05:45;;;;;;;23.40;11.50;;;6.70;99.90;;;6.58;90.58;99061.75;5027759;28;20477;-72
2022/11/26 05:08:12;;;;;;;14.23;10.40;;;6.60;99.90;;;6.67;90.63;99055.41;5025074;28;20462;-71
2022/11/26 05:10:40;;;;;;;16.87;11.40;;;6.60;99.90;;;6.54;90.41;99066.66;5021436;28;20451;-72
2022/11/26 05:13:07;;;;;;;13.90;10.33;;;6.60;99.90;;;6.48;91.34;99062.75;5017289;28;20870;-71
2022/11/26 05:15:36;;;;;;;22.67;12.17;;;6.60;99.90;;;6.52;90.91;99063.25;5022736;28;20454;-73
2022/11/26 05:18:04;;;;;;;20.93;11.93;;;6.60;99.90;;;6.52;91.50;99080.22;5032286;28;20855;-73
2022/11/26 05:20:31;;;;;;;18.60;11.30;;;6.60;99.90;;;6.51;91.53;99075.84;5026856;28;20446;-73
2022/11/26 05:22:58;;;;;;;21.07;12.03;;;6.60;99.90;;;6.44;92.05;99074.81;5028520;28;20573;-73
2022/11/26 05:25:25;;;;;;;20.47;11.50;;;6.60;99.90;;;6.44;91.56;99077.50;5037485;28;20893;-72
2022/11/26 05:27:54;;;;;;;18.50;10.90;;;6.60;99.90;;;6.44;91.98;99082.03;5027344;28;20515;-72
2022/11/26 05:30:21;;;;;;;18.53;11.80;;;6.50;99.90;;;6.36;92.20;99085.53;5030522;28;20537;-72
2022/11/26 05:32:51;;;;;;;18.87;12.30;;;6.50;99.90;;;6.44;91.83;99093.59;5032801;28;20458;-72
2022/11/26 05:35:18;;;;;;;18.13;11.10;;;6.50;99.90;;;6.59;92.08;99092.97;5027560;28;20472;-71
2022/11/26 05:37:45;;;;;;;19.80;12.30;;;6.50;99.90;;;6.41;92.38;99093.94;5030931;28;20453;-72
2022/11/26 05:40:13;;;;;;;19.60;12.00;;;6.50;99.90;;;6.48;92.17;99100.34;5025026;28;20455;-70
2022/11/26 05:42:42;;;;;;;21.70;12.37;;;6.50;99.90;;;6.42;92.33;99095.63;5027053;28;20442;-72
2022/11/26 05:45:10;;;;;;;20.40;11.57;;;6.50;99.90;;;6.38;92.17;99100.50;5017444;28;20703;-72
2022/11/26 05:47:38;;;;;;;20.93;11.80;;;6.40;99.90;;;6.60;91.98;99102.75;5018914;28;20501;-74
2022/11/26 05:50:08;;;;;;;19.13;12.93;;;6.50;99.90;;;6.56;91.50;99104.06;5027648;28;20564;-72
2022/11/26 05:52:36;;;;;;;25.43;11.90;;;6.50;99.90;;;6.36;91.76;99113.22;5022459;28;20450;-71
2022/11/26 05:55:03;;;;;;;18.70;12.30;;;6.40;99.90;;;6.22;92.73;99100.41;5025230;28;20478;-72
2022/11/26 05:57:30;;;;;;;21.00;12.80;;;6.30;99.90;;;6.11;93.66;99114.94;5022582;28;20461;-72
2022/11/26 05:59:57;;;;;;;26.23;12.50;;;6.30;99.90;;;6.14;93.21;99103.91;5026018;28;20949;-73
2022/11/26 06:02:24;;;;;;;18.03;12.70;;;6.20;99.90;;;6.19;92.80;99106.94;5024323;28;20450;-71
2022/11/26 06:04:51;;;;;;;19.07;12.90;;;6.20;99.90;;;6.29;92.79;99111.31;5025280;28;20482;-73
2022/11/26 06:07:20;;;;;;;22.50;11.93;;;6.20;99.90;;;6.31;92.70;99106.66;5040064;28;20452;-71
2022/11/26 06:09:47;;;;;;;24.07;14.30;;;6.20;99.90;;;6.22;93.38;99116.53;5026977;28;20454;-71
2022/11/26 06:12:14;;;;;;;20.27;12.80;;;6.20;99.90;;;6.48;92.90;99111.09;5022109;28;20458;-71
2022/11/26 06:14:42;;;;;;;20.00;13.70;;;6.30;99.90;;;6.55;92.22;99121.19;5026733;28;20471;-72
2022/11/26 06:17:09;;;;;;;21.80;13.00;;;6.40;99.90;;;6.69;91.43;99120.56;5022421;28;20449;-71
2022/11/26 06:19:36;;;;;;;20.83;12.30;;;6.50;99.90;;;6.73;91.00;99119.22;5037997;28;20459;-72
2022/11/26 06:22:04;;;;;;;22.10;13.00;;;6.60;99.90;;;6.72;90.81;99117.53;5038989;28;20460;-73
2022/11/26 06:24:32;;;;;;;26.90;13.13;;;6.60;99.90;;;6.72;90.75;99114.84;5024785;28;20457;-71
2022/11/26 06:27:00;;;;;;;17.07;11.90;;;6.60;99.90;;;6.87;90.78;99127.66;5018305;28;20958;-72
2022/11/26 06:29:27;;;;;;;23.97;12.30;;;6.60;99.90;;;6.85;90.57;99126.97;5022080;28;20473;-73
2022/11/26 06:31:54;;;;;;;17.00;12.30;;;6.70;99.90;;;6.79;89.82;99118.56;5034339;28;20455;-71
2022/11/26 06:34:21;;;;;;;18.10;12.53;;;6.70;99.90;;;6.93;89.77;99135.88;5021775;28;20451;-72
2022/11/26 06:36:48;;;;;;;20.57;12.50;;;6.70;99.90;;;6.94;89.61;99131.38;5021873;28;20467;-71
2022/11/26 06:39:16;;;;;;;19.13;10.67;;;6.80;99.90;;;6.98;89.68;99127.34;5019949;28;20451;-70
2022/11/26 06:41:44;;;;;;;15.77;11.07;;;6.80;99.90;;;6.84;89.72;99136.03;5021864;28;20451;-71
2022/11/26 06:44:11;;;;;;;16.40;11.10;;;6.80;99.90;;;6.86;89.63;99145.63;5038301;28;20466;-71
2022/11/26 06:46:39;;;;;;;17.60;11.20;;;6.80;99.90;;;6.85;89.49;99137.72;5024021;28;20482;-71
2022/11/26 06:49:07;;;;;;;15.43;10.30;;;6.80;99.90;;;6.85;89.11;99145.78;5025594;28;20935;-74
2022/11/26 06:51:34;;;;;;;18.40;10.97;;;6.80;99.90;;;6.95;89.28;99157.22;5016668;28;21020;-70
2022/11/26 06:54:02;;;;;;;15.87;10.57;;;6.80;99.90;;;7.14;88.43;99163.31;5023060;28;20443;-70
2022/11/26 06:56:29;;;;;;;18.23;11.80;;;6.90;99.90;;;7.03;88.84;99162.59;5021667;28;20860;-72
2022/11/26 06:58:57;;;;;;;22.43;11.50;;;6.90;99.90;;;7.06;88.51;99165.00;5027861;28;20519;-71
2022/11/26 07:01:26;;;;;;;22.43;11.20;;;6.90;99.90;;;7.18;88.70;99175.41;5032463;28;20446;-70
2022/11/26 07:03:55;;;;;;;15.23;9.53;;;6.90;99.90;;;7.08;87.74;99160.28;5049434;28;20466;-70
2022/11/26 07:06:24;;;;;;;19.80;10.40;;;7.00;99.90;;;7.25;87.06;99171.06;5025518;28;20470;-70
2022/11/26 07:08:53;;;;;;;16.27;10.00;;;7.10;99.90;;;7.15;86.77;99165.00;5022188;28;20991;-70
2022/11/26 07:11:21;;;;;;;23.03;11.83;;;7.10;99.90;;;7.13;87.12;99177.75;5035817;28;20451;-70
2022/11/26 07:13:49;;;;;;;15.87;9.90;;;7.10;99.90;;;7.17;87.31;99185.34;5016980;28;20466;-69
2022/11/26 07:16:17;;;;;;;18.67;11.17;;;7.10;99.90;;;7.24;87.10;99180.13;5021260;28;20462;-69
2022/11/26 07:18:48;;;;;;;17.43;10.07;;;7.10;99.90;;;7.28;86.94;99181.47;5018641;28;20524;-70
2022/11/26 07:21:18;;;;;;;17.50;9.50;;;7.10;99.90;;;7.19;87.29;99182.47;5043314;28;20809;-70
2022/11/26 07:23:46;;;;;;;13.07;10.87;;;7.10;99.90;;;7.39;87.69;99179.50;5022717;28;20462;-73
2022/11/26 07:26:14;;;;;;;16.70;10.23;;;7.30;99.90;;;7.38;87.60;99157.13;5015371;28;20506;-71
2022/11/26 07:28:42;;;;;;;16.43;10.50;;;7.30;99.90;;;7.51;87.43;99159.34;5019239;28;20482;-70
2022/11/26 07:31:12;;;;;;;18.10;9.70;;;7.50;99.90;;;7.59;85.33;99182.72;5024907;28;20946;-76
2022/11/26 07:33:41;;;;;;;12.13;9.40;;;7.50;97.50;;;7.53;84.84;99181.53;5025080;28;20455;-74
2022/11/26 07:36:14;;;;;;;12.90;10.00;;;7.60;95.80;;;7.71;84.28;99184.03;5023952;28;20459;-76
2022/11/26 07:38:41;;;;;;;16.63;9.77;;;7.60;95.40;;;7.35;84.36;99160.16;5039413;28;20447;-73
2022/11/26 07:41:11;;;;;;;15.80;9.57;;;7.60;94.30;;;7.36;84.91;99183.34;5023043;28;20461;-74
2022/11/26 07:43:41;;;;;;;13.77;9.37;;;7.50;94.60;;;7.43;84.95;99191.59;5026201;28;20493;-78
2022/11/26 07:46:11;;;;;;;15.07;9.90;;;7.40;95.00;;;7.48;85.16;99197.28;5023524;28;20984;-75
2022/11/26 07:48:40;;;;;;;12.00;9.57;;;7.40;96.30;;;7.55;84.38;99192.94;5020739;28;20845;-75
2022/11/26 07:51:16;;;;;;;16.63;9.57;;;7.50;95.90;;;7.58;83.81;99198.00;5018544;28;20525;-77
2022/11/26 07:53:43;;;;;;;18.63;9.37;;;7.50;94.70;;;7.36;84.09;99194.94;5020114;28;20455;-76
2022/11/26 07:56:10;;;;;;;12.47;9.07;;;7.40;95.10;;;7.37;85.07;99207.38;5022420;28;20452;-74
2022/11/26 07:58:37;;;;;;;15.33;10.40;;;7.30;95.70;;;7.26;85.03;99205.00;5022016;28;20463;-77
2022/11/26 08:01:10;;;;;;;18.50;10.17;;;7.20;96.60;;;7.10;85.68;99189.66;5020051;28;20870;-76
2022/11/26 08:03:40;;;;;;;17.10;9.03;;;7.10;97.30;;;7.31;85.37;99221.47;5019783;28;21662;-78
2022/11/26 08:06:09;;;;;;;15.40;9.23;;;7.10;98.20;;;7.36;84.81;99229.91;5019382;28;20478;-81
2022/11/26 08:08:37;;;;;;;17.60;9.10;;;7.20;96.70;;;7.43;84.71;99237.31;5019726;28;20886;-75
2022/11/26 08:11:12;;;;;;;12.00;9.87;;;7.30;96.00;;;7.55;84.06;99230.59;5020436;28;20447;-80
2022/11/26 08:13:39;;;;;;;21.37;9.60;;;7.40;95.50;;;7.61;84.81;99240.69;5024645;28;20477;-74
2022/11/26 08:16:07;;;;;;;17.23;10.47;;;7.50;95.40;;;7.70;84.24;99211.94;5025202;28;20525;-75
2022/11/26 08:18:34;;;;;;;15.10;9.50;;;7.80;95.00;;;7.85;83.31;99239.03;5025318;28;20989;-74
2022/11/26 08:21:04;;;;;;;14.90;10.30;;;7.90;94.10;;;7.70;83.67;99225.38;5022119;28;20473;-76
2022/11/26 08:23:33;;;;;;;17.23;10.70;;;7.80;93.90;;;7.75;84.27;99243.72;5024727;28;20459;-75
2022/11/26 08:26:06;;;;;;;14.67;9.33;;;7.80;94.60;;;7.59;82.94;99191.59;5015550;28;20467;-75
2022/11/26 08:28:34;;;;;;;16.00;10.43;;;7.90;94.00;;;8.02;82.68;99252.50;5020994;28;20946;-75
2022/11/26 08:31:02;;;;;;;15.73;11.10;;;7.90;93.80;;;7.80;82.86;99214.47;5018252;28;20459;-78
2022/11/26 08:33:30;;;;;;;18.40;11.07;;;7.90;94.00;;;8.11;82.43;99256.84;5020992;28;20945;-74
2022/11/26 08:35:57;;;;;;;15.07;10.00;;;8.00;93.60;;;8.31;80.98;99248.44;5029997;28;20462;-70
2022/11/26 08:38:27;;;;;;;13.97;9.60;;;8.20;92.90;;;8.38;81.58;99257.50;5020337;28;20980;-71
2022/11/26 08:40:55;;;;;;;12.67;8.40;;;8.30;92.40;;;8.42;79.39;99266.06;5018148;28;20540;-71
2022/11/26 08:43:22;;;;;;;20.03;9.70;;;8.30;91.20;;;8.60;79.87;99271.31;5023369;28;20931;-71
2022/11/26 08:45:54;;;;;;;13.57;9.60;;;8.40;91.80;;;8.52;80.11;99274.84;5031853;28;20541;-69
2022/11/26 08:48:23;;;;;;;17.83;9.37;;;8.40;91.50;;;8.76;80.12;99270.41;5032320;28;20463;-70
2022/11/26 08:50:50;;;;;;;12.53;8.60;;;8.50;91.80;;;8.99;78.81;99275.88;5021243;28;20449;-70
2022/11/26 08:53:18;;;;;;;16.63;9.63;;;8.70;91.10;;;8.72;79.12;99282.53;5041862;28;20972;-74
2022/11/26 08:55:47;;;;;;;11.63;8.17;;;8.60;90.30;;;8.73;78.01;99281.53;5009723;28;20935;-71
2022/11/26 08:58:14;;;;;;;12.87;8.90;;;8.70;90.00;;;8.62;78.04;99283.56;5027962;28;20461;-70
2022/11/26 09:00:43;;;;;;;14.73;9.70;;;8.70;89.20;;;8.30;79.29;99296.03;5024806;28;20518;-70
2022/11/26 09:03:10;;;;;;;13.57;9.73;;;8.40;89.90;;;8.35;79.19;99301.78;5025170;28;20454;-69
2022/11/26 09:05:38;;;;;;;16.10;11.93;;;8.40;90.40;;;8.26;79.57;99286.63;5043872;28;20501;-70
2022/11/26 09:08:05;;;;;;;15.00;10.40;;;8.40;90.80;;;8.18;80.89;99300.94;5018753;28;20540;-70
2022/11/26 09:10:33;;;;;;;13.50;9.93;;;8.30;90.90;;;7.97;80.87;99304.13;5023671;28;20446;-70
2022/11/26 09:13:01;;;;;;;15.43;9.80;;;8.20;91.00;;;7.89;81.38;99312.19;5035193;28;20512;-68
2022/11/26 09:15:28;;;;;;;21.53;11.40;;;8.00;91.20;;;7.83;81.61;99308.31;5041693;28;20478;-70
2022/11/26 09:17:56;;;;;;;20.53;11.27;;;8.00;91.50;;;7.84;81.04;99304.63;5022218;28;20474;-70
2022/11/26 09:20:23;;;;;;;17.00;10.37;;;8.00;91.70;;;7.98;81.54;99310.34;5028937;28;20508;-70
2022/11/26 09:22:50;;;;;;;15.47;11.20;;;8.00;92.00;;;8.00;81.58;99303.78;5023087;28;20456;-71
2022/11/26 09:25:17;;;;;;;20.83;10.27;;;8.10;91.70;;;7.74;81.44;99299.41;5025465;28;20463;-69
2022/11/26 09:27:45;;;;;;;14.13;10.73;;;8.00;91.10;;;7.79;81.07;99313.19;5022646;28;20575;-70
2022/11/26 09:30:15;;;;;;;14.43;10.13;;;7.90;91.30;;;8.05;81.24;99324.81;5031144;28;20497;-71
2022/11/26 09:32:42;;;;;;;15.63;10.63;;;8.00;92.00;;;8.26;80.57;99318.09;5020369;28;20471;-72
2022/11/26 09:35:09;;;;;;;15.13;10.07;;;8.30;91.70;;;7.87;81.38;99320.44;5037899;28;20934;-71
2022/11/26 09:37:36;;;;;;;15.50;10.13;;;8.20;91.20;;;7.97;81.02;99317.56;5020072;28;20459;-70
2022/11/26 09:40:05;;;;;;;17.47;11.40;;;8.00;91.50;;;7.98;81.16;99323.81;5019871;28;20485;-70
2022/11/26 09:42:48;;;;;;;17.93;10.30;;;8.10;91.30;;;8.07;80.69;99317.41;5046237;28;20451;-70
2022/11/26 09:45:36;;;;;;;21.93;12.07;;;8.20;91.40;;;7.83;81.16;99319.09;5029215;28;20790;-71
2022/11/26 09:48:04;;;;;;;23.00;13.50;;;8.00;91.30;;;8.08;80.87;99313.72;5025996;28;20882;-70
2022/11/26 09:50:34;;;;;;;20.43;11.27;;;8.10;91.70;;;8.00;79.60;99302.97;5026588;28;20458;-70
2022/11/26 09:53:09;;;;;;;20.10;13.97;;;8.10;90.60;;;7.90;80.03;99312.03;5022846;28;20447;-71
2022/11/26 09:55:40;;;;;;;20.93;12.20;;;8.00;91.00;;;7.64;82.17;99315.66;5029081;28;20446;-71
2022/11/26 09:58:13;;;;;;;22.03;13.10;;;7.90;91.50;;;7.42;81.91;99324.34;5011450;28;20444;-69
2022/11/26 10:00:45;;;;;;;19.93;13.30;;;7.70;91.50;;;7.08;83.54;99310.78;5011302;28;20459;-71
2022/11/26 10:03:15;;;;;;;18.83;12.77;;;7.40;92.40;;;7.19;83.99;99322.25;5011047;28;20443;-71
2022/11/26 10:05:51;;;;;;;22.37;12.97;;;7.30;93.10;;;7.18;83.48;99320.56;5035620;28;20455;-69
2022/11/26 10:08:55;;;;;;;18.70;13.53;;;7.30;93.40;;;7.33;83.43;99329.69;5030014;28;20496;-70
2022/11/26 10:11:31;;;;;;;18.97;13.90;;;7.40;92.90;;;7.45;82.41;99316.81;5023648;28;20443;-71
2022/11/26 10:14:14;;;;;;;23.67;13.87;;;7.60;92.80;;;7.45;81.53;99322.19;5028839;28;20443;-69
2022/11/26 10:16:53;;;;;;;25.27;15.77;;;7.60;91.30;;;7.49;80.83;99317.31;5026951;28;21064;-70
2022/11/26 10:19:27;;;;;;;21.97;15.47;;;7.60;91.50;;;7.63;81.71;99316.66;5026955;28;20501;-70
2022/11/26 10:21:59;;;;;;;24.77;15.47;;;7.70;91.60;;;7.83;80.14;99318.22;5015167;28;20475;-69
2022/11/26 10:24:30;;;;;;;23.90;14.13;;;7.90;91.00;;;7.65;80.65;99311.97;5023603;28;20478;-70
2022/11/26 10:27:01;;;;;;;16.50;12.33;;;7.90;90.90;;;7.50;80.77;99313.59;5019143;28;20474;-71
2022/11/26 10:29:37;;;;;;;22.03;13.53;;;7.80;90.80;;;7.32;81.54;99322.63;5018697;28;20458;-71
2022/11/26 10:32:14;;;;;;;20.20;13.80;;;7.60;91.30;;;7.36;82.47;99333.91;5016257;28;20492;-70